Current | Forecast
Updated: 11:00 PM JST on June 29, 2017
Observed at Tokyo, Japan
Temperature 73°F
Humidity 94%
Dew Point 72°F
Wind South at 15 mph
Pressure 29.92 in (Steady)
Conditions Mostly Cloudy
Visibility 6.2 miles
UV 0 out of 16
Clouds (FEW) : 800 ft
Mostly Cloudy (BKN) : 13000 ft
Yesterday's Maximum 79°F
Yesterday's Minimum 72°F approx.
Yesterday's Cooling Degree Days 10 approx.
Sunrise4:28 AM JST
Sunset7:00 PM JST
Moon Rise9:51 AM JST
Moon Set10:54 PM JST
Moon PhaseMoon Phase
Waxing Crescent
Raw METARMETAR RJTT 291400Z 17013KT 9999 FEW008 BKN130 23/22 Q1013 NOSIG RMK 1ST008 7AC130 A2993


Monday
. High: 75° F.
Tuesday
. High: 75° F.
Wednesday
. High: 68° F.
Thursday
. High: 73° F.
Friday
. High: 75° F.
Saturday
. High: 77° F.
Sunday
. High: 73° F.
Monday
. High: 71° F.

Units: English | Metric

Find the Weather for any City, State or Zipcode, or Country:

U.S. State List | Severe Weather | Tropical Storms | Ski Conditions
United States | Canada | Central America | South America | Asia | Europe | Australia | Africa | Islands

Weather Underground

© Copyright 2017
The Weather Company, LLC